sensor_id;sensor_type;location;lat;lon;timestamp;temperature;humidity
55008;DHT22;40902;45.116;21.296;2023-02-12T00:01:22;103.30;2227.20
55008;DHT22;40902;45.116;21.296;2023-02-12T00:03:48;103.20;2227.20
55008;DHT22;40902;45.116;21.296;2023-02-12T00:06:14;103.20;2227.20
55008;DHT22;40902;45.116;21.296;2023-02-12T00:08:40;103.20;2227.20
55008;DHT22;40902;45.116;21.296;2023-02-12T00:11:18;103.20;2227.20
55008;DHT22;40902;45.116;21.296;2023-02-12T00:13:44;103.30;2227.20
55008;DHT22;40902;45.116;21.296;2023-02-12T00:16:16;103.30;2227.20
55008;DHT22;40902;45.116;21.296;2023-02-12T00:18:43;103.20;2227.20
55008;DHT22;40902;45.116;21.296;2023-02-12T00:21:09;103.20;2227.20
55008;DHT22;40902;45.116;21.296;2023-02-12T00:23:36;103.20;2227.20
55008;DHT22;40902;45.116;21.296;2023-02-12T00:26:11;103.30;2227.20
55008;DHT22;40902;45.116;21.296;2023-02-12T00:28:37;103.20;2227.20
55008;DHT22;40902;45.116;21.296;2023-02-12T00:31:11;103.20;2227.20
55008;DHT22;40902;45.116;21.296;2023-02-12T00:33:37;103.20;2227.20
55008;DHT22;40902;45.116;21.296;2023-02-12T00:36:04;103.20;2227.20
55008;DHT22;40902;45.116;21.296;2023-02-12T00:38:30;103.10;2227.20
55008;DHT22;40902;45.116;21.296;2023-02-12T00:40:56;103.10;2227.20
55008;DHT22;40902;45.116;21.296;2023-02-12T00:43:21;103.10;2227.20
55008;DHT22;40902;45.116;21.296;2023-02-12T00:45:47;103.10;2227.20
55008;DHT22;40902;45.116;21.296;2023-02-12T00:48:14;103.10;2227.20
55008;DHT22;40902;45.116;21.296;2023-02-12T00:50:40;103.10;2227.20
55008;DHT22;40902;45.116;21.296;2023-02-12T00:53:08;103.10;2227.20
55008;DHT22;40902;45.116;21.296;2023-02-12T00:55:34;103.10;2227.20
55008;DHT22;40902;45.116;21.296;2023-02-12T00:58:00;103.20;2227.20
55008;DHT22;40902;45.116;21.296;2023-02-12T01:00:26;103.20;2227.20
55008;DHT22;40902;45.116;21.296;2023-02-12T01:02:51;103.20;2227.20
55008;DHT22;40902;45.116;21.296;2023-02-12T01:05:17;103.10;2227.20
55008;DHT22;40902;45.116;21.296;2023-02-12T01:07:51;103.10;2227.20
55008;DHT22;40902;45.116;21.296;2023-02-12T01:10:17;103.00;2227.20
55008;DHT22;40902;45.116;21.296;2023-02-12T01:12:45;103.00;2227.20
55008;DHT22;40902;45.116;21.296;2023-02-12T01:15:12;103.10;2227.20
55008;DHT22;40902;45.116;21.296;2023-02-12T01:17:37;103.00;2227.20
55008;DHT22;40902;45.116;21.296;2023-02-12T01:20:05;103.00;2227.20
55008;DHT22;40902;45.116;21.296;2023-02-12T01:22:34;102.90;2227.20
55008;DHT22;40902;45.116;21.296;2023-02-12T01:25:00;102.90;2227.20
55008;DHT22;40902;45.116;21.296;2023-02-12T01:27:25;102.90;2227.20
55008;DHT22;40902;45.116;21.296;2023-02-12T01:29:51;102.90;2227.20
55008;DHT22;40902;45.116;21.296;2023-02-12T01:32:17;103.00;2227.20
55008;DHT22;40902;45.116;21.296;2023-02-12T01:34:43;103.00;2227.20
55008;DHT22;40902;45.116;21.296;2023-02-12T01:37:08;102.90;2227.20
55008;DHT22;40902;45.116;21.296;2023-02-12T01:39:34;102.90;2227.20
55008;DHT22;40902;45.116;21.296;2023-02-12T01:42:00;102.90;2227.20
55008;DHT22;40902;45.116;21.296;2023-02-12T01:44:31;102.90;2227.20
55008;DHT22;40902;45.116;21.296;2023-02-12T01:47:02;103.00;2227.20
55008;DHT22;40902;45.116;21.296;2023-02-12T01:49:40;103.00;2227.20
55008;DHT22;40902;45.116;21.296;2023-02-12T01:52:17;103.00;2227.20
55008;DHT22;40902;45.116;21.296;2023-02-12T01:54:46;103.00;2227.20
55008;DHT22;40902;45.116;21.296;2023-02-12T01:57:13;103.00;2227.20
55008;DHT22;40902;45.116;21.296;2023-02-12T01:59:43;103.00;2227.20
55008;DHT22;40902;45.116;21.296;2023-02-12T02:02:10;102.90;2227.20
55008;DHT22;40902;45.116;21.296;2023-02-12T02:04:50;102.90;2227.20
55008;DHT22;40902;45.116;21.296;2023-02-12T02:07:18;102.90;2227.20
55008;DHT22;40902;45.116;21.296;2023-02-12T02:09:43;102.90;2227.20
55008;DHT22;40902;45.116;21.296;2023-02-12T02:12:10;102.90;2227.20
55008;DHT22;40902;45.116;21.296;2023-02-12T02:14:57;102.90;2227.20
55008;DHT22;40902;45.116;21.296;2023-02-12T02:33:53;102.60;2227.20
55008;DHT22;40902;45.116;21.296;2023-02-12T02:42:38;102.60;2227.20
55008;DHT22;40902;45.116;21.296;2023-02-12T02:45:18;102.60;2227.20
55008;DHT22;40902;45.116;21.296;2023-02-12T02:47:52;102.60;2227.20
55008;DHT22;40902;45.116;21.296;2023-02-12T02:50:20;102.70;2227.20
55008;DHT22;40902;45.116;21.296;2023-02-12T02:53:01;102.70;2227.20
55008;DHT22;40902;45.116;21.296;2023-02-12T02:55:35;102.70;2227.20
55008;DHT22;40902;45.116;21.296;2023-02-12T02:58:40;102.70;2227.20
55008;DHT22;40902;45.116;21.296;2023-02-12T03:01:38;102.70;2227.20
55008;DHT22;40902;45.116;21.296;2023-02-12T03:10:01;102.60;2227.20
55008;DHT22;40902;45.116;21.296;2023-02-12T03:13:04;102.60;2227.20
55008;DHT22;40902;45.116;21.296;2023-02-12T03:15:48;102.60;2227.20
55008;DHT22;40902;45.116;21.296;2023-02-12T03:18:22;102.60;2227.20
55008;DHT22;40902;45.116;21.296;2023-02-12T03:20:51;102.60;2227.20
55008;DHT22;40902;45.116;21.296;2023-02-12T03:23:27;102.60;2227.20
55008;DHT22;40902;45.116;21.296;2023-02-12T03:26:04;102.60;2227.20
55008;DHT22;40902;45.116;21.296;2023-02-12T03:28:35;102.60;2227.20
55008;DHT22;40902;45.116;21.296;2023-02-12T03:31:18;102.60;2227.20
55008;DHT22;40902;45.116;21.296;2023-02-12T03:33:51;102.60;2227.20
55008;DHT22;40902;45.116;21.296;2023-02-12T03:39:32;102.50;2227.20
55008;DHT22;40902;45.116;21.296;2023-02-12T03:44:46;102.40;2227.20
55008;DHT22;40902;45.116;21.296;2023-02-12T03:50:08;102.40;2227.20
55008;DHT22;40902;45.116;21.296;2023-02-12T03:52:35;102.40;2227.20
55008;DHT22;40902;45.116;21.296;2023-02-12T03:55:02;102.40;2227.20
55008;DHT22;40902;45.116;21.296;2023-02-12T03:57:33;102.40;2227.20
55008;DHT22;40902;45.116;21.296;2023-02-12T04:00:05;102.40;2227.20
55008;DHT22;40902;45.116;21.296;2023-02-12T04:02:31;77.70;2227.20
55008;DHT22;40902;45.116;21.296;2023-02-12T04:05:04;102.40;2227.20
55008;DHT22;40902;45.116;21.296;2023-02-12T04:07:29;102.40;2227.20
55008;DHT22;40902;45.116;21.296;2023-02-12T04:09:55;102.40;2227.20
55008;DHT22;40902;45.116;21.296;2023-02-12T04:12:43;102.50;2227.20
55008;DHT22;40902;45.116;21.296;2023-02-12T04:15:27;102.40;2227.20
55008;DHT22;40902;45.116;21.296;2023-02-12T04:18:19;102.50;2227.20
55008;DHT22;40902;45.116;21.296;2023-02-12T04:31:49;102.50;2227.20
55008;DHT22;40902;45.116;21.296;2023-02-12T04:34:28;102.40;2227.20
55008;DHT22;40902;45.116;21.296;2023-02-12T04:37:03;102.40;2227.20
55008;DHT22;40902;45.116;21.296;2023-02-12T04:39:31;102.40;2227.20
55008;DHT22;40902;45.116;21.296;2023-02-12T04:42:02;102.40;2227.20
55008;DHT22;40902;45.116;21.296;2023-02-12T04:44:32;102.40;2227.20
55008;DHT22;40902;45.116;21.296;2023-02-12T04:46:58;102.40;2227.20
55008;DHT22;40902;45.116;21.296;2023-02-12T04:49:25;77.70;2227.20
55008;DHT22;40902;45.116;21.296;2023-02-12T04:51:51;77.70;2227.20
55008;DHT22;40902;45.116;21.296;2023-02-12T04:54:18;77.70;2227.20
55008;DHT22;40902;45.116;21.296;2023-02-12T04:56:45;77.70;2227.20
55008;DHT22;40902;45.116;21.296;2023-02-12T04:59:11;77.50;2227.20
55008;DHT22;40902;45.116;21.296;2023-02-12T05:01:37;77.50;2227.20
55008;DHT22;40902;45.116;21.296;2023-02-12T05:04:04;77.50;2227.20
55008;DHT22;40902;45.116;21.296;2023-02-12T05:06:33;77.50;2227.20
55008;DHT22;40902;45.116;21.296;2023-02-12T05:08:59;77.50;2227.20
55008;DHT22;40902;45.116;21.296;2023-02-12T05:11:25;77.50;2227.20
55008;DHT22;40902;45.116;21.296;2023-02-12T05:13:52;77.50;2227.20
55008;DHT22;40902;45.116;21.296;2023-02-12T05:16:19;77.50;2227.20
55008;DHT22;40902;45.116;21.296;2023-02-12T05:18:45;77.50;2227.20
55008;DHT22;40902;45.116;21.296;2023-02-12T05:21:11;77.50;2227.20
55008;DHT22;40902;45.116;21.296;2023-02-12T05:23:38;77.50;2227.20
55008;DHT22;40902;45.116;21.296;2023-02-12T05:26:06;77.50;2227.20
55008;DHT22;40902;45.116;21.296;2023-02-12T05:28:33;77.50;2227.20
55008;DHT22;40902;45.116;21.296;2023-02-12T05:31:00;77.50;2227.20
55008;DHT22;40902;45.116;21.296;2023-02-12T05:33:26;77.50;2227.20
55008;DHT22;40902;45.116;21.296;2023-02-12T05:35:52;77.60;2227.20
55008;DHT22;40902;45.116;21.296;2023-02-12T05:38:17;77.60;2227.20
55008;DHT22;40902;45.116;21.296;2023-02-12T05:40:43;77.50;2227.20
55008;DHT22;40902;45.116;21.296;2023-02-12T05:43:09;77.50;2227.20
55008;DHT22;40902;45.116;21.296;2023-02-12T05:45:35;77.60;2227.20
55008;DHT22;40902;45.116;21.296;2023-02-12T05:48:02;77.50;2227.20
55008;DHT22;40902;45.116;21.296;2023-02-12T05:50:28;77.50;2227.20
55008;DHT22;40902;45.116;21.296;2023-02-12T05:52:54;77.50;2227.20
55008;DHT22;40902;45.116;21.296;2023-02-12T05:55:20;77.50;2227.20
55008;DHT22;40902;45.116;21.296;2023-02-12T05:57:46;77.50;2227.20
55008;DHT22;40902;45.116;21.296;2023-02-12T06:00:12;77.60;2227.20
55008;DHT22;40902;45.116;21.296;2023-02-12T06:02:38;77.60;2227.20
55008;DHT22;40902;45.116;21.296;2023-02-12T06:05:04;77.60;2227.20
55008;DHT22;40902;45.116;21.296;2023-02-12T06:07:29;77.60;2227.20
55008;DHT22;40902;45.116;21.296;2023-02-12T06:09:55;77.50;2227.20
55008;DHT22;40902;45.116;21.296;2023-02-12T06:12:21;77.50;2227.20
55008;DHT22;40902;45.116;21.296;2023-02-12T06:14:46;77.50;2227.20
55008;DHT22;40902;45.116;21.296;2023-02-12T06:17:12;77.50;2227.20
55008;DHT22;40902;45.116;21.296;2023-02-12T06:19:38;77.50;2227.20
55008;DHT22;40902;45.116;21.296;2023-02-12T06:22:04;77.50;2227.20
55008;DHT22;40902;45.116;21.296;2023-02-12T06:24:30;77.60;2227.20
55008;DHT22;40902;45.116;21.296;2023-02-12T06:26:55;77.60;2227.20
55008;DHT22;40902;45.116;21.296;2023-02-12T06:29:21;77.60;2227.20
55008;DHT22;40902;45.116;21.296;2023-02-12T06:31:47;77.70;2227.20
55008;DHT22;40902;45.116;21.296;2023-02-12T06:34:14;77.70;2227.20
55008;DHT22;40902;45.116;21.296;2023-02-12T06:36:43;102.40;2227.20
55008;DHT22;40902;45.116;21.296;2023-02-12T06:39:10;102.50;2227.20
55008;DHT22;40902;45.116;21.296;2023-02-12T06:41:36;102.60;2227.20
55008;DHT22;40902;45.116;21.296;2023-02-12T06:44:03;102.60;2227.20
55008;DHT22;40902;45.116;21.296;2023-02-12T06:46:29;102.70;2227.20
55008;DHT22;40902;45.116;21.296;2023-02-12T06:48:56;102.80;2227.20
55008;DHT22;40902;45.116;21.296;2023-02-12T06:51:23;102.80;2227.20
55008;DHT22;40902;45.116;21.296;2023-02-12T06:53:51;102.90;2227.20
55008;DHT22;40902;45.116;21.296;2023-02-12T06:56:17;102.90;2227.20
55008;DHT22;40902;45.116;21.296;2023-02-12T06:58:45;103.00;2227.20
55008;DHT22;40902;45.116;21.296;2023-02-12T07:01:22;103.10;2227.20
55008;DHT22;40902;45.116;21.296;2023-02-12T07:03:51;103.10;2227.20
55008;DHT22;40902;45.116;21.296;2023-02-12T07:06:18;103.20;2227.20
55008;DHT22;40902;45.116;21.296;2023-02-12T07:08:44;103.30;2227.20
55008;DHT22;40902;45.116;21.296;2023-02-12T07:11:10;103.30;2227.20
55008;DHT22;40902;45.116;21.296;2023-02-12T07:13:36;128.00;2252.80
55008;DHT22;40902;45.116;21.296;2023-02-12T07:16:06;128.00;2252.80
55008;DHT22;40902;45.116;21.296;2023-02-12T07:18:33;103.30;2227.20
55008;DHT22;40902;45.116;21.296;2023-02-12T07:20:59;103.20;2227.20
55008;DHT22;40902;45.116;21.296;2023-02-12T07:23:24;103.10;2227.20
55008;DHT22;40902;45.116;21.296;2023-02-12T07:25:57;103.10;2227.20
55008;DHT22;40902;45.116;21.296;2023-02-12T07:28:23;103.10;2227.20
55008;DHT22;40902;45.116;21.296;2023-02-12T07:30:49;103.20;2227.20
55008;DHT22;40902;45.116;21.296;2023-02-12T07:33:15;103.20;2227.20
55008;DHT22;40902;45.116;21.296;2023-02-12T07:35:41;103.20;2227.20
55008;DHT22;40902;45.116;21.296;2023-02-12T07:38:07;103.20;2227.20
55008;DHT22;40902;45.116;21.296;2023-02-12T07:40:33;103.20;2227.20
55008;DHT22;40902;45.116;21.296;2023-02-12T07:42:58;103.30;2227.20
55008;DHT22;40902;45.116;21.296;2023-02-12T07:45:24;128.00;2252.80
55008;DHT22;40902;45.116;21.296;2023-02-12T07:47:50;128.00;2252.80
55008;DHT22;40902;45.116;21.296;2023-02-12T07:50:16;128.00;2252.80
55008;DHT22;40902;45.116;21.296;2023-02-12T07:52:41;128.10;2252.80
55008;DHT22;40902;45.116;21.296;2023-02-12T07:55:07;128.00;2252.80
55008;DHT22;40902;45.116;21.296;2023-02-12T07:57:37;128.20;2252.80
55008;DHT22;40902;45.116;21.296;2023-02-12T08:00:03;128.30;2252.80
55008;DHT22;40902;45.116;21.296;2023-02-12T08:02:29;128.40;2252.80
55008;DHT22;40902;45.116;21.296;2023-02-12T08:04:56;128.50;2252.80
55008;DHT22;40902;45.116;21.296;2023-02-12T08:07:22;128.60;2252.80
55008;DHT22;40902;45.116;21.296;2023-02-12T08:09:48;128.60;2252.80
55008;DHT22;40902;45.116;21.296;2023-02-12T08:12:14;128.70;2252.80
55008;DHT22;40902;45.116;21.296;2023-02-12T08:14:40;128.90;2252.80
55008;DHT22;40902;45.116;21.296;2023-02-12T08:17:05;153.70;2252.80
55008;DHT22;40902;45.116;21.296;2023-02-12T08:19:33;153.80;2252.80
55008;DHT22;40902;45.116;21.296;2023-02-12T08:21:58;153.80;2252.80
55008;DHT22;40902;45.116;21.296;2023-02-12T08:24:26;153.90;2252.80
55008;DHT22;40902;45.116;21.296;2023-02-12T08:26:52;153.90;2252.80
55008;DHT22;40902;45.116;21.296;2023-02-12T08:29:20;154.00;2252.80
55008;DHT22;40902;45.116;21.296;2023-02-12T08:31:48;154.10;2252.80
55008;DHT22;40902;45.116;21.296;2023-02-12T08:34:23;154.20;2252.80
55008;DHT22;40902;45.116;21.296;2023-02-12T08:36:50;154.40;2252.80
55008;DHT22;40902;45.116;21.296;2023-02-12T08:39:18;154.50;2252.80
55008;DHT22;40902;45.116;21.296;2023-02-12T08:41:45;179.30;2252.80
55008;DHT22;40902;45.116;21.296;2023-02-12T08:44:12;179.20;2252.80
55008;DHT22;40902;45.116;21.296;2023-02-12T08:46:42;179.30;2252.80
55008;DHT22;40902;45.116;21.296;2023-02-12T08:49:12;179.40;2252.80
55008;DHT22;40902;45.116;21.296;2023-02-12T08:51:41;179.30;2252.80
55008;DHT22;40902;45.116;21.296;2023-02-12T08:54:12;179.20;2252.80
55008;DHT22;40902;45.116;21.296;2023-02-12T08:56:38;179.20;2252.80
55008;DHT22;40902;45.116;21.296;2023-02-12T08:59:05;154.50;2252.80
55008;DHT22;40902;45.116;21.296;2023-02-12T09:01:33;154.40;2252.80
55008;DHT22;40902;45.116;21.296;2023-02-12T09:04:00;154.50;2252.80
55008;DHT22;40902;45.116;21.296;2023-02-12T09:06:26;179.20;2252.80
55008;DHT22;40902;45.116;21.296;2023-02-12T09:08:52;179.20;2252.80
55008;DHT22;40902;45.116;21.296;2023-02-12T09:11:22;154.50;2252.80
55008;DHT22;40902;45.116;21.296;2023-02-12T09:13:51;154.40;2252.80
55008;DHT22;40902;45.116;21.296;2023-02-12T09:16:17;154.50;2252.80
55008;DHT22;40902;45.116;21.296;2023-02-12T09:18:43;154.50;2252.80
55008;DHT22;40902;45.116;21.296;2023-02-12T09:21:14;154.40;2252.80
55008;DHT22;40902;45.116;21.296;2023-02-12T09:23:41;154.40;2252.80
55008;DHT22;40902;45.116;21.296;2023-02-12T09:26:09;154.40;2252.80
55008;DHT22;40902;45.116;21.296;2023-02-12T09:28:37;154.40;2252.80
55008;DHT22;40902;45.116;21.296;2023-02-12T09:31:09;154.30;2252.80
55008;DHT22;40902;45.116;21.296;2023-02-12T09:33:35;154.30;2252.80
55008;DHT22;40902;45.116;21.296;2023-02-12T09:36:10;154.30;2252.80
55008;DHT22;40902;45.116;21.296;2023-02-12T09:38:36;154.30;2252.80
55008;DHT22;40902;45.116;21.296;2023-02-12T09:41:17;154.50;2252.80
55008;DHT22;40902;45.116;21.296;2023-02-12T09:52:13;179.20;2252.80
55008;DHT22;40902;45.116;21.296;2023-02-12T09:54:41;179.30;2252.80
55008;DHT22;40902;45.116;21.296;2023-02-12T09:57:19;179.20;2252.80
55008;DHT22;40902;45.116;21.296;2023-02-12T09:59:53;179.20;2252.80
55008;DHT22;40902;45.116;21.296;2023-02-12T10:02:21;154.50;2252.80
55008;DHT22;40902;45.116;21.296;2023-02-12T10:04:50;154.50;2252.80
55008;DHT22;40902;45.116;21.296;2023-02-12T10:10:30;179.20;2252.80
55008;DHT22;40902;45.116;21.296;2023-02-12T10:15:41;179.20;2252.80
55008;DHT22;40902;45.116;21.296;2023-02-12T10:18:20;179.20;2252.80
55008;DHT22;40902;45.116;21.296;2023-02-12T10:21:00;179.30;2252.80
55008;DHT22;40902;45.116;21.296;2023-02-12T10:23:39;179.40;2252.80
55008;DHT22;40902;45.116;21.296;2023-02-12T10:26:20;179.40;2252.80
55008;DHT22;40902;45.116;21.296;2023-02-12T10:28:47;179.50;2252.80
55008;DHT22;40902;45.116;21.296;2023-02-12T10:31:41;179.50;2252.80
55008;DHT22;40902;45.116;21.296;2023-02-12T10:36:44;179.60;2252.80
55008;DHT22;40902;45.116;21.296;2023-02-12T10:44:19;179.90;2252.80
55008;DHT22;40902;45.116;21.296;2023-02-12T10:46:45;179.90;2252.80
55008;DHT22;40902;45.116;21.296;2023-02-12T10:49:15;179.80;2252.80
55008;DHT22;40902;45.116;21.296;2023-02-12T10:54:50;179.90;2252.80
55008;DHT22;40902;45.116;21.296;2023-02-12T10:59:52;179.80;2252.80
55008;DHT22;40902;45.116;21.296;2023-02-12T11:02:27;179.80;2252.80
55008;DHT22;40902;45.116;21.296;2023-02-12T11:04:54;179.80;2252.80
55008;DHT22;40902;45.116;21.296;2023-02-12T11:07:21;179.90;2252.80
55008;DHT22;40902;45.116;21.296;2023-02-12T11:09:49;180.10;2252.80
55008;DHT22;40902;45.116;21.296;2023-02-12T11:12:39;204.80;2252.80
55008;DHT22;40902;45.116;21.296;2023-02-12T11:17:40;205.10;2252.80
55008;DHT22;40902;45.116;21.296;2023-02-12T11:25:21;205.30;2252.80
55008;DHT22;40902;45.116;21.296;2023-02-12T11:30:31;205.20;2252.80
55008;DHT22;40902;45.116;21.296;2023-02-12T11:33:15;205.10;2252.80
55008;DHT22;40902;45.116;21.296;2023-02-12T11:38:49;205.20;2252.80
55008;DHT22;40902;45.116;21.296;2023-02-12T11:43:50;205.30;2252.80
55008;DHT22;40902;45.116;21.296;2023-02-12T11:46:20;205.50;2252.80
55008;DHT22;40902;45.116;21.296;2023-02-12T11:48:47;205.50;2252.80
55008;DHT22;40902;45.116;21.296;2023-02-12T11:51:25;205.60;2252.80
55008;DHT22;40902;45.116;21.296;2023-02-12T11:53:57;205.70;2252.80
55008;DHT22;40902;45.116;21.296;2023-02-12T11:56:43;205.70;2252.80
55008;DHT22;40902;45.116;21.296;2023-02-12T12:02:37;205.60;2252.80
55008;DHT22;40902;45.116;21.296;2023-02-12T12:05:10;205.40;2252.80
55008;DHT22;40902;45.116;21.296;2023-02-12T12:07:40;205.40;2252.80
55008;DHT22;40902;45.116;21.296;2023-02-12T12:10:15;205.40;2252.80
55008;DHT22;40902;45.116;21.296;2023-02-12T12:12:50;205.40;2252.80
55008;DHT22;40902;45.116;21.296;2023-02-12T12:18:18;205.40;2252.80
55008;DHT22;40902;45.116;21.296;2023-02-12T12:24:00;205.30;2252.80
55008;DHT22;40902;45.116;21.296;2023-02-12T12:26:30;205.40;2252.80
55008;DHT22;40902;45.116;21.296;2023-02-12T12:29:12;205.40;2252.80
55008;DHT22;40902;45.116;21.296;2023-02-12T12:31:43;205.50;2252.80
55008;DHT22;40902;45.116;21.296;2023-02-12T12:34:18;205.60;2252.80
55008;DHT22;40902;45.116;21.296;2023-02-12T12:40:06;205.60;2252.80
55008;DHT22;40902;45.116;21.296;2023-02-12T12:48:00;205.60;2252.80
55008;DHT22;40902;45.116;21.296;2023-02-12T13:23:54;230.40;2252.80
55008;DHT22;40902;45.116;21.296;2023-02-12T13:29:11;230.40;2227.20
55008;DHT22;40902;45.116;21.296;2023-02-12T13:31:58;230.50;2227.20
55008;DHT22;40902;45.116;21.296;2023-02-12T13:34:28;230.60;2201.60
55008;DHT22;40902;45.116;21.296;2023-02-12T13:36:56;230.60;2227.20
55008;DHT22;40902;45.116;21.296;2023-02-12T13:39:31;230.50;2227.20
55008;DHT22;40902;45.116;21.296;2023-02-12T13:47:20;230.50;2252.80
55008;DHT22;40902;45.116;21.296;2023-02-12T13:50:46;230.40;2252.80
55008;DHT22;40902;45.116;21.296;2023-02-12T13:56:06;230.50;2252.80
55008;DHT22;40902;45.116;21.296;2023-02-12T14:01:11;230.60;2252.80
55008;DHT22;40902;45.116;21.296;2023-02-12T14:03:38;230.70;2252.80
55008;DHT22;40902;45.116;21.296;2023-02-12T14:06:08;230.60;2252.80
55008;DHT22;40902;45.116;21.296;2023-02-12T14:08:37;230.60;2252.80
55008;DHT22;40902;45.116;21.296;2023-02-12T14:11:10;230.60;2252.80
55008;DHT22;40902;45.116;21.296;2023-02-12T14:13:53;230.50;2252.80
55008;DHT22;40902;45.116;21.296;2023-02-12T14:21:57;230.50;2252.80
55008;DHT22;40902;45.116;21.296;2023-02-12T14:27:04;230.60;2252.80
55008;DHT22;40902;45.116;21.296;2023-02-12T14:29:31;230.60;2252.80
55008;DHT22;40902;45.116;21.296;2023-02-12T14:31:57;230.70;2252.80
55008;DHT22;40902;45.116;21.296;2023-02-12T14:37:10;230.70;2252.80
55008;DHT22;40902;45.116;21.296;2023-02-12T14:39:36;230.80;2252.80
55008;DHT22;40902;45.116;21.296;2023-02-12T14:44:37;230.80;2252.80
55008;DHT22;40902;45.116;21.296;2023-02-12T14:47:10;230.90;2252.80
55008;DHT22;40902;45.116;21.296;2023-02-12T14:49:48;230.90;2252.80
55008;DHT22;40902;45.116;21.296;2023-02-12T14:52:21;230.80;2252.80
55008;DHT22;40902;45.116;21.296;2023-02-12T14:57:36;230.80;2252.80
55008;DHT22;40902;45.116;21.296;2023-02-12T15:05:37;230.90;2252.80
55008;DHT22;40902;45.116;21.296;2023-02-12T15:08:54;230.90;2252.80
55008;DHT22;40902;45.116;21.296;2023-02-12T15:11:40;230.90;2252.80
55008;DHT22;40902;45.116;21.296;2023-02-12T15:19:49;230.80;2252.80
55008;DHT22;40902;45.116;21.296;2023-02-12T15:22:43;230.70;2252.80
55008;DHT22;40902;45.116;21.296;2023-02-12T15:25:31;230.70;2252.80
55008;DHT22;40902;45.116;21.296;2023-02-12T15:28:18;230.70;2252.80
55008;DHT22;40902;45.116;21.296;2023-02-12T15:30:45;230.70;2252.80
55008;DHT22;40902;45.116;21.296;2023-02-12T15:33:26;230.70;2252.80
55008;DHT22;40902;45.116;21.296;2023-02-12T15:35:53;230.60;2252.80
55008;DHT22;40902;45.116;21.296;2023-02-12T15:38:32;230.60;2252.80
55008;DHT22;40902;45.116;21.296;2023-02-12T15:41:00;230.50;2252.80
55008;DHT22;40902;45.116;21.296;2023-02-12T15:43:31;230.50;2252.80
55008;DHT22;40902;45.116;21.296;2023-02-12T15:46:01;230.40;2252.80
55008;DHT22;40902;45.116;21.296;2023-02-12T15:48:32;230.40;2252.80
55008;DHT22;40902;45.116;21.296;2023-02-12T15:53:27;205.60;2252.80
55008;DHT22;40902;45.116;21.296;2023-02-12T15:55:56;205.60;2252.80
55008;DHT22;40902;45.116;21.296;2023-02-12T16:00:55;205.40;2252.80
55008;DHT22;40902;45.116;21.296;2023-02-12T16:03:32;205.30;2252.80
55008;DHT22;40902;45.116;21.296;2023-02-12T16:06:12;205.20;2252.80
55008;DHT22;40902;45.116;21.296;2023-02-12T16:08:48;205.20;2252.80
55008;DHT22;40902;45.116;21.296;2023-02-12T16:11:18;205.20;2252.80
55008;DHT22;40902;45.116;21.296;2023-02-12T16:13:47;205.00;2252.80
55008;DHT22;40902;45.116;21.296;2023-02-12T16:18:40;204.90;2252.80
55008;DHT22;40902;45.116;21.296;2023-02-12T16:21:21;204.90;2252.80
55008;DHT22;40902;45.116;21.296;2023-02-12T16:23:49;204.80;2252.80
55008;DHT22;40902;45.116;21.296;2023-02-12T16:26:18;204.90;2252.80
55008;DHT22;40902;45.116;21.296;2023-02-12T16:28:52;204.80;2252.80
55008;DHT22;40902;45.116;21.296;2023-02-12T16:31:19;180.10;2252.80
55008;DHT22;40902;45.116;21.296;2023-02-12T16:33:48;180.10;2252.80
55008;DHT22;40902;45.116;21.296;2023-02-12T16:38:50;180.00;2252.80
55008;DHT22;40902;45.116;21.296;2023-02-12T16:41:21;179.90;2252.80
55008;DHT22;40902;45.116;21.296;2023-02-12T16:46:18;179.80;2252.80
55008;DHT22;40902;45.116;21.296;2023-02-12T16:48:47;179.80;2252.80
55008;DHT22;40902;45.116;21.296;2023-02-12T16:51:26;179.80;2252.80
55008;DHT22;40902;45.116;21.296;2023-02-12T16:53:54;179.80;2252.80
55008;DHT22;40902;45.116;21.296;2023-02-12T16:56:23;179.80;2252.80
55008;DHT22;40902;45.116;21.296;2023-02-12T16:58:53;179.80;2252.80
55008;DHT22;40902;45.116;21.296;2023-02-12T17:01:26;179.70;2252.80
55008;DHT22;40902;45.116;21.296;2023-02-12T17:03:53;179.70;2252.80
55008;DHT22;40902;45.116;21.296;2023-02-12T17:06:21;179.60;2252.80
55008;DHT22;40902;45.116;21.296;2023-02-12T17:08:48;179.50;2252.80
55008;DHT22;40902;45.116;21.296;2023-02-12T17:11:15;179.50;2252.80
55008;DHT22;40902;45.116;21.296;2023-02-12T17:13:46;179.50;2252.80
55008;DHT22;40902;45.116;21.296;2023-02-12T17:16:12;179.50;2252.80
55008;DHT22;40902;45.116;21.296;2023-02-12T17:18:39;179.50;2252.80
55008;DHT22;40902;45.116;21.296;2023-02-12T17:21:07;179.40;2252.80
55008;DHT22;40902;45.116;21.296;2023-02-12T17:23:34;179.40;2252.80
55008;DHT22;40902;45.116;21.296;2023-02-12T17:26:00;179.30;2252.80
55008;DHT22;40902;45.116;21.296;2023-02-12T17:28:26;179.30;2252.80
55008;DHT22;40902;45.116;21.296;2023-02-12T17:30:52;179.20;2252.80
55008;DHT22;40902;45.116;21.296;2023-02-12T17:33:19;179.20;2252.80
55008;DHT22;40902;45.116;21.296;2023-02-12T17:35:45;154.50;2252.80
55008;DHT22;40902;45.116;21.296;2023-02-12T17:38:11;154.50;2252.80
55008;DHT22;40902;45.116;21.296;2023-02-12T17:40:37;179.20;2252.80
55008;DHT22;40902;45.116;21.296;2023-02-12T17:43:04;154.40;2252.80
55008;DHT22;40902;45.116;21.296;2023-02-12T17:45:30;154.40;2252.80
55008;DHT22;40902;45.116;21.296;2023-02-12T17:47:56;154.40;2252.80
55008;DHT22;40902;45.116;21.296;2023-02-12T17:50:23;154.30;2252.80
55008;DHT22;40902;45.116;21.296;2023-02-12T17:52:49;154.30;2252.80
55008;DHT22;40902;45.116;21.296;2023-02-12T17:55:14;154.20;2252.80
55008;DHT22;40902;45.116;21.296;2023-02-12T17:57:42;154.20;2252.80
55008;DHT22;40902;45.116;21.296;2023-02-12T18:00:10;154.10;2252.80
55008;DHT22;40902;45.116;21.296;2023-02-12T18:02:37;154.10;2252.80
55008;DHT22;40902;45.116;21.296;2023-02-12T18:05:03;154.00;2252.80
55008;DHT22;40902;45.116;21.296;2023-02-12T18:07:32;154.00;2252.80
55008;DHT22;40902;45.116;21.296;2023-02-12T18:09:58;154.10;2252.80